Time;durP1;ratioP1;P1;durP2;ratioP2;P2;SDS_P1;SDS_P2;PMS_P1;PMS_P2;Temp;Humidity;BMP_temperature;BMP_pressure;BME280_temperature;BME280_humidity;BME280_pressure;Samples;Min_cycle;Max_cycle;Signal;HPM_P1;HPM_P2
2022/06/24 00:01:15;;;;;;;79.25;28.90;;;;;;;;;;5048300;28;20430;-64
2022/06/24 00:03:45;;;;;;;84.97;27.83;;;;;;;;;;5047516;28;20073;-64
2022/06/24 00:06:13;;;;;;;86.63;32.63;;;;;;;;;;5050475;28;20398;-64
2022/06/24 00:08:53;;;;;;;64.82;26.90;;;;;;;;;;5050024;28;20124;-63
2022/06/24 00:11:23;;;;;;;113.65;45.60;;;;;;;;;;5047480;28;20052;-64
2022/06/24 00:13:50;;;;;;;66.68;25.35;;;;;;;;;;5068549;28;20065;-63
2022/06/24 00:16:17;;;;;;;104.50;28.52;;;;;;;;;;5038037;28;20545;-64
2022/06/24 00:18:44;;;;;;;65.78;26.60;;;;;;;;;;5047567;28;20204;-64
2022/06/24 00:21:11;;;;;;;124.90;36.25;;;;;;;;;;5049997;28;20744;-63
2022/06/24 00:23:39;;;;;;;139.80;55.90;;;;;;;;;;5064032;28;20080;-64
2022/06/24 00:26:06;;;;;;;152.30;54.35;;;;;;;;;;5045059;28;20275;-63
2022/06/24 00:28:33;;;;;;;154.35;55.65;;;;;;;;;;5046927;28;20045;-64
2022/06/24 00:31:01;;;;;;;158.95;58.83;;;;;;;;;;5033756;28;20505;-62
2022/06/24 00:33:32;;;;;;;239.43;81.40;;;;;;;;;;5047752;28;20049;-62
2022/06/24 00:35:59;;;;;;;194.70;75.63;;;;;;;;;;5047772;28;20045;-61
2022/06/24 00:38:30;;;;;;;197.90;71.47;;;;;;;;;;5047493;28;20136;-61
2022/06/24 00:41:04;;;;;;;150.75;62.83;;;;;;;;;;5048185;28;20041;-63
2022/06/24 00:43:30;;;;;;;;;;;;;;;;;;5047580;28;20560;-62
2022/06/24 00:46:03;;;;;;;244.55;110.68;;;;;;;;;;5047133;28;19954;-62
2022/06/24 00:48:30;;;;;;;288.58;132.23;;;;;;;;;;5047226;28;20045;-65
2022/06/24 00:50:57;;;;;;;227.40;94.28;;;;;;;;;;5047126;28;20072;-62
2022/06/24 00:53:23;;;;;;;211.90;81.60;;;;;;;;;;5045471;28;20056;-62
2022/06/24 00:55:51;;;;;;;206.82;92.25;;;;;;;;;;5047485;28;20452;-64
2022/06/24 00:58:18;;;;;;;186.23;84.32;;;;;;;;;;5046795;28;20067;-61
2022/06/24 01:00:47;;;;;;;156.88;71.32;;;;;;;;;;5046967;28;20037;-63
2022/06/24 01:03:14;;;;;;;146.73;61.10;;;;;;;;;;5049662;28;20580;-62
2022/06/24 01:05:42;;;;;;;134.35;58.80;;;;;;;;;;5049348;28;20106;-62
2022/06/24 01:08:09;;;;;;;124.90;57.17;;;;;;;;;;5047159;28;20047;-62
2022/06/24 01:10:36;;;;;;;105.00;42.08;;;;;;;;;;5046468;28;20041;-62
2022/06/24 01:13:06;;;;;;;78.88;30.98;;;;;;;;;;5046750;28;20116;-62
2022/06/24 01:15:33;;;;;;;60.60;26.65;;;;;;;;;;5044908;28;20045;-62
2022/06/24 01:18:00;;;;;;;68.03;24.63;;;;;;;;;;5049446;28;20041;-61
2022/06/24 01:20:27;;;;;;;66.05;27.00;;;;;;;;;;5046285;28;20505;-61
2022/06/24 01:22:53;;;;;;;61.35;26.13;;;;;;;;;;5046219;28;20123;-61
2022/06/24 01:25:20;;;;;;;80.35;33.03;;;;;;;;;;5046371;28;20571;-62
2022/06/24 01:27:46;;;;;;;90.22;31.23;;;;;;;;;;5045637;28;20041;-62
2022/06/24 01:30:13;;;;;;;91.53;34.88;;;;;;;;;;5049030;28;20055;-62
2022/06/24 01:32:40;;;;;;;92.15;36.42;;;;;;;;;;5046771;28;20580;-61
2022/06/24 01:35:10;;;;;;;87.18;34.40;;;;;;;;;;5045690;28;20044;-61
2022/06/24 01:37:37;;;;;;;76.50;29.95;;;;;;;;;;5046333;28;20049;-61
2022/06/24 01:40:04;;;;;;;78.57;24.55;;;;;;;;;;5045936;28;20069;-62
2022/06/24 01:42:31;;;;;;;54.67;20.75;;;;;;;;;;5046449;28;20494;-62
2022/06/24 01:44:58;;;;;;;54.88;22.00;;;;;;;;;;5046623;28;20592;-61
2022/06/24 01:47:25;;;;;;;51.30;20.70;;;;;;;;;;5047093;28;20138;-62
2022/06/24 01:49:51;;;;;;;62.40;22.38;;;;;;;;;;5049032;28;20083;-62
2022/06/24 01:52:18;;;;;;;51.60;20.50;;;;;;;;;;5049838;28;20049;-62
2022/06/24 01:54:44;;;;;;;44.90;18.98;;;;;;;;;;5049965;28;20736;-62
2022/06/24 01:57:11;;;;;;;79.47;20.15;;;;;;;;;;5052694;28;20079;-65
2022/06/24 01:59:37;;;;;;;76.05;20.65;;;;;;;;;;5051561;28;20087;-64
2022/06/24 02:02:04;;;;;;;52.17;20.42;;;;;;;;;;5049750;28;20448;-64
2022/06/24 02:04:30;;;;;;;56.65;20.50;;;;;;;;;;5047885;28;20486;-61
2022/06/24 02:06:57;;;;;;;35.85;18.23;;;;;;;;;;5049578;28;20044;-61
2022/06/24 02:09:23;;;;;;;48.95;18.42;;;;;;;;;;5050320;28;20081;-61
2022/06/24 02:14:35;;;;;;;61.20;19.85;;;;;;;;;;5081261;28;20037;-61
2022/06/24 02:17:07;;;;;;;103.57;22.20;;;;;;;;;;5048814;28;20053;-62
2022/06/24 02:19:33;;;;;;;35.60;17.33;;;;;;;;;;5049415;28;20041;-62
2022/06/24 02:22:00;;;;;;;68.97;19.15;;;;;;;;;;5047845;28;20036;-62
2022/06/24 02:24:26;;;;;;;48.47;19.02;;;;;;;;;;5050516;28;20037;-61
2022/06/24 02:26:53;;;;;;;44.22;18.88;;;;;;;;;;5053665;28;20072;-61
2022/06/24 02:29:19;;;;;;;89.43;19.92;;;;;;;;;;5049375;28;20067;-61
2022/06/24 02:31:46;;;;;;;59.05;18.02;;;;;;;;;;5052979;28;20120;-61
2022/06/24 02:34:12;;;;;;;45.42;15.95;;;;;;;;;;5048441;28;20396;-61
2022/06/24 02:36:39;;;;;;;30.17;13.57;;;;;;;;;;5049722;28;20048;-61
2022/06/24 02:39:05;;;;;;;40.25;13.90;;;;;;;;;;5053390;28;20076;-61
2022/06/24 02:41:32;;;;;;;45.15;15.02;;;;;;;;;;5050554;28;20041;-63
2022/06/24 02:43:59;;;;;;;32.38;13.38;;;;;;;;;;5049420;28;20076;-62
2022/06/24 02:46:25;;;;;;;32.67;14.52;;;;;;;;;;5049195;28;20041;-62
2022/06/24 02:48:53;;;;;;;51.08;15.80;;;;;;;;;;5048981;28;20094;-64
2022/06/24 02:51:19;;;;;;;57.00;16.10;;;;;;;;;;5051539;28;20501;-63
2022/06/24 02:53:46;;;;;;;48.20;16.60;;;;;;;;;;5052631;28;20409;-63
2022/06/24 02:56:13;;;;;;;51.08;14.57;;;;;;;;;;5049341;28;20036;-61
2022/06/24 02:58:41;;;;;;;36.25;12.23;;;;;;;;;;5047376;28;20060;-63
2022/06/24 03:01:07;;;;;;;31.27;12.07;;;;;;;;;;5049580;28;20083;-63
2022/06/24 03:03:34;;;;;;;43.28;13.20;;;;;;;;;;5047972;28;20121;-63
2022/06/24 03:06:01;;;;;;;27.20;11.27;;;;;;;;;;5053815;28;20056;-62
2022/06/24 03:08:27;;;;;;;32.28;11.27;;;;;;;;;;5050240;28;20480;-62
2022/06/24 03:10:55;;;;;;;36.97;9.55;;;;;;;;;;5052911;28;20045;-63
2022/06/24 03:13:21;;;;;;;26.20;8.70;;;;;;;;;;5049311;28;20140;-63
2022/06/24 03:15:48;;;;;;;38.25;9.02;;;;;;;;;;5052588;28;20171;-61
2022/06/24 03:18:15;;;;;;;58.47;9.80;;;;;;;;;;5052015;28;20043;-59
2022/06/24 03:20:42;;;;;;;33.58;9.27;;;;;;;;;;5051081;28;20128;-62
2022/06/24 03:23:12;;;;;;;41.17;10.07;;;;;;;;;;5049450;28;20032;-61
2022/06/24 03:25:39;;;;;;;28.00;7.72;;;;;;;;;;5048793;28;20477;-61
2022/06/24 03:28:05;;;;;;;37.67;9.10;;;;;;;;;;5047542;28;20127;-62
2022/06/24 03:30:32;;;;;;;36.05;9.32;;;;;;;;;;5032813;28;20030;-62
2022/06/24 03:33:00;;;;;;;53.60;10.38;;;;;;;;;;5051670;28;20513;-62
2022/06/24 03:35:26;;;;;;;67.13;11.80;;;;;;;;;;5048283;28;20124;-62
2022/06/24 03:37:53;;;;;;;51.97;10.65;;;;;;;;;;5048532;28;20041;-62
2022/06/24 03:40:20;;;;;;;57.42;9.70;;;;;;;;;;5048230;28;20091;-63
2022/06/24 03:42:46;;;;;;;33.95;7.68;;;;;;;;;;5048862;28;20443;-62
2022/06/24 03:45:13;;;;;;;45.60;8.07;;;;;;;;;;5050935;28;20120;-60
2022/06/24 03:47:39;;;;;;;48.45;9.70;;;;;;;;;;5049469;28;20045;-62
2022/06/24 03:50:06;;;;;;;36.15;8.85;;;;;;;;;;5048670;28;20069;-63
2022/06/24 03:52:33;;;;;;;49.75;9.10;;;;;;;;;;5047729;28;20390;-62
2022/06/24 03:55:00;;;;;;;35.83;8.13;;;;;;;;;;5051820;28;20035;-63
2022/06/24 03:57:26;;;;;;;41.97;8.07;;;;;;;;;;5049648;28;20029;-63
2022/06/24 03:59:53;;;;;;;20.15;7.07;;;;;;;;;;5051934;28;20120;-63
2022/06/24 04:02:21;;;;;;;30.30;7.28;;;;;;;;;;5047583;28;20037;-61
2022/06/24 04:04:48;;;;;;;37.88;7.38;;;;;;;;;;5033234;28;20072;-61
2022/06/24 04:07:14;;;;;;;42.70;6.70;;;;;;;;;;5047692;28;20547;-61
2022/06/24 04:09:41;;;;;;;50.83;8.27;;;;;;;;;;5047136;28;20073;-62
2022/06/24 04:12:07;;;;;;;52.92;8.20;;;;;;;;;;5050988;28;20072;-63
2022/06/24 04:17:19;;;;;;;25.88;6.03;;;;;;;;;;5048161;28;20041;-60
2022/06/24 04:19:45;;;;;;;31.15;6.90;;;;;;;;;;5047150;28;20125;-60
2022/06/24 04:22:12;;;;;;;25.40;6.75;;;;;;;;;;5047204;28;20120;-61
2022/06/24 04:24:38;;;;;;;35.08;6.97;;;;;;;;;;5029730;28;20076;-60
2022/06/24 04:27:05;;;;;;;23.08;6.20;;;;;;;;;;5052330;28;20094;-60
2022/06/24 04:29:32;;;;;;;29.58;5.93;;;;;;;;;;5047069;28;20052;-61
2022/06/24 04:31:58;;;;;;;29.15;5.43;;;;;;;;;;5047221;28;20151;-59
2022/06/24 04:34:26;;;;;;;18.45;6.38;;;;;;;;;;5046926;28;20055;-58
2022/06/24 04:36:52;;;;;;;26.40;5.80;;;;;;;;;;5047754;28;20446;-58
2022/06/24 04:39:19;;;;;;;45.13;7.45;;;;;;;;;;5049401;28;20550;-60
2022/06/24 04:41:45;;;;;;;26.95;6.13;;;;;;;;;;5049707;28;20095;-59
2022/06/24 04:44:12;;;;;;;26.20;5.40;;;;;;;;;;5046993;28;20044;-59
2022/06/24 04:46:38;;;;;;;29.88;6.07;;;;;;;;;;5046883;28;20076;-59
2022/06/24 04:49:05;;;;;;;25.80;5.50;;;;;;;;;;5045167;28;20032;-59
2022/06/24 04:51:31;;;;;;;37.03;6.45;;;;;;;;;;5045966;28;20045;-60
2022/06/24 04:53:58;;;;;;;46.72;7.38;;;;;;;;;;5051250;28;20036;-60
2022/06/24 04:56:25;;;;;;;41.35;6.82;;;;;;;;;;5046081;28;20566;-60
2022/06/24 04:58:58;;;;;;;38.70;6.45;;;;;;;;;;5046669;28;20043;-60
2022/06/24 05:01:25;;;;;;;52.65;7.82;;;;;;;;;;5045365;28;20045;-60
2022/06/24 05:03:52;;;;;;;22.50;5.60;;;;;;;;;;5046614;28;20041;-61
2022/06/24 05:06:18;;;;;;;52.60;7.38;;;;;;;;;;5061865;28;20041;-61
2022/06/24 05:08:47;;;;;;;35.25;5.45;;;;;;;;;;5050132;28;20564;-61
2022/06/24 05:11:13;;;;;;;37.97;5.82;;;;;;;;;;5045631;28;20370;-61
2022/06/24 05:13:40;;;;;;;15.70;4.40;;;;;;;;;;5046804;28;20064;-61
2022/06/24 05:16:06;;;;;;;34.88;6.10;;;;;;;;;;5046759;28;20033;-61
2022/06/24 05:18:53;;;;;;;34.03;5.20;;;;;;;;;;5046581;28;20069;-62
2022/06/24 05:21:19;;;;;;;46.00;6.22;;;;;;;;;;5048720;28;20134;-61
2022/06/24 05:23:46;;;;;;;26.75;4.55;;;;;;;;;;5047761;28;20077;-61
2022/06/24 05:26:12;;;;;;;19.67;4.30;;;;;;;;;;5044927;28;20048;-61
2022/06/24 05:28:39;;;;;;;31.73;5.60;;;;;;;;;;5047086;28;20140;-61
2022/06/24 05:31:05;;;;;;;35.45;5.50;;;;;;;;;;5046514;28;20493;-61
2022/06/24 05:33:33;;;;;;;21.25;4.78;;;;;;;;;;5046711;28;20521;-61
2022/06/24 05:35:59;;;;;;;87.38;9.57;;;;;;;;;;5062910;28;20038;-62
2022/06/24 05:38:26;;;;;;;36.33;5.88;;;;;;;;;;5046070;28;20037;-61
2022/06/24 05:40:52;;;;;;;31.63;5.20;;;;;;;;;;5046173;28;20104;-61
2022/06/24 05:43:19;;;;;;;42.95;6.72;;;;;;;;;;5049977;28;20044;-61
2022/06/24 05:45:46;;;;;;;40.90;6.68;;;;;;;;;;5046705;28;20072;-61
2022/06/24 05:48:14;;;;;;;41.90;6.55;;;;;;;;;;5049194;28;20041;-61
2022/06/24 05:50:41;;;;;;;49.40;6.15;;;;;;;;;;5047910;28;20107;-62
2022/06/24 05:56:00;;;;;;;48.38;6.82;;;;;;;;;;5045934;28;20124;-61
2022/06/24 05:58:27;;;;;;;46.70;6.00;;;;;;;;;;5046234;28;20041;-61
2022/06/24 06:00:56;;;;;;;554.15;43.30;;;;;;;;;;5045035;28;20100;-62
2022/06/24 06:03:24;;;;;;;56.13;7.05;;;;;;;;;;5047739;28;20075;-61
2022/06/24 06:05:50;;;;;;;21.52;4.40;;;;;;;;;;5060380;28;20048;-61
2022/06/24 06:08:18;;;;;;;14.35;4.13;;;;;;;;;;5048178;28;20041;-62
2022/06/24 06:10:47;;;;;;;31.45;5.25;;;;;;;;;;5045220;28;20037;-61
2022/06/24 06:13:13;;;;;;;31.55;4.55;;;;;;;;;;5045819;28;20117;-62
2022/06/24 06:15:43;;;;;;;47.47;6.03;;;;;;;;;;5046170;28;20050;-62
2022/06/24 06:18:09;;;;;;;31.85;4.63;;;;;;;;;;5050199;28;20395;-61
2022/06/24 06:20:37;;;;;;;32.97;4.90;;;;;;;;;;5046835;28;20045;-61
2022/06/24 06:23:11;;;;;;;45.25;5.82;;;;;;;;;;5045495;28;20037;-61
2022/06/24 06:25:38;;;;;;;20.10;3.78;;;;;;;;;;5045617;28;20056;-62
2022/06/24 06:28:05;;;;;;;36.25;5.22;;;;;;;;;;5044407;28;20120;-62
2022/06/24 06:30:32;;;;;;;39.15;5.82;;;;;;;;;;5046445;28;20088;-61
2022/06/24 06:32:58;;;;;;;28.45;4.13;;;;;;;;;;5049538;28;20045;-61
2022/06/24 06:35:25;;;;;;;26.58;3.65;;;;;;;;;;5047838;28;20044;-60
2022/06/24 06:37:52;;;;;;;39.83;4.82;;;;;;;;;;5047650;28;20060;-60
2022/06/24 06:40:19;;;;;;;48.83;5.32;;;;;;;;;;5049596;28;20041;-60
2022/06/24 06:42:45;;;;;;;18.45;3.53;;;;;;;;;;5049638;28;20042;-61
2022/06/24 06:45:12;;;;;;;38.00;4.63;;;;;;;;;;5051511;28;20481;-60
2022/06/24 06:47:39;;;;;;;36.47;4.38;;;;;;;;;;5050036;28;20041;-60
2022/06/24 06:50:06;;;;;;;34.33;4.03;;;;;;;;;;5049335;28;20104;-60
2022/06/24 06:52:38;;;;;;;76.38;6.32;;;;;;;;;;5049078;28;20035;-60
2022/06/24 06:55:05;;;;;;;33.03;4.30;;;;;;;;;;5049112;28;20073;-60
2022/06/24 06:57:32;;;;;;;46.58;5.25;;;;;;;;;;5049414;28;20051;-60
2022/06/24 06:59:59;;;;;;;32.00;4.13;;;;;;;;;;5065678;28;20076;-60
2022/06/24 07:02:25;;;;;;;68.32;6.15;;;;;;;;;;5048535;28;20770;-60
2022/06/24 07:04:52;;;;;;;25.75;3.83;;;;;;;;;;5053869;28;20037;-60
2022/06/24 07:07:19;;;;;;;18.05;3.05;;;;;;;;;;5048737;28;20231;-60
2022/06/24 07:09:45;;;;;;;32.83;3.88;;;;;;;;;;5048842;28;20478;-61
2022/06/24 07:12:13;;;;;;;60.53;5.63;;;;;;;;;;5052055;28;20092;-60
2022/06/24 07:14:43;;;;;;;27.65;3.45;;;;;;;;;;5048843;28;20041;-60
2022/06/24 07:17:13;;;;;;;28.42;3.55;;;;;;;;;;5048564;28;20037;-60
2022/06/24 07:19:40;;;;;;;34.08;4.53;;;;;;;;;;5048258;28;20074;-60
2022/06/24 07:22:06;;;;;;;27.33;3.70;;;;;;;;;;5048324;28;20436;-60
2022/06/24 07:24:33;;;;;;;46.92;5.13;;;;;;;;;;5049119;28;20069;-60
2022/06/24 07:27:03;;;;;;;50.08;5.18;;;;;;;;;;5053040;28;20040;-61
2022/06/24 07:29:31;;;;;;;49.45;6.55;;;;;;;;;;5048141;28;20124;-60
2022/06/24 07:31:57;;;;;;;138.50;11.82;;;;;;;;;;5048277;28;20037;-60
2022/06/24 07:34:26;;;;;;;321.25;21.40;;;;;;;;;;5048154;28;20493;-60
2022/06/24 07:36:53;;;;;;;35.00;4.43;;;;;;;;;;5048123;28;20044;-60
2022/06/24 07:39:20;;;;;;;37.67;4.10;;;;;;;;;;5050762;28;20076;-61
2022/06/24 07:41:46;;;;;;;12.05;2.85;;;;;;;;;;5050469;28;20084;-61
2022/06/24 07:44:13;;;;;;;98.32;7.75;;;;;;;;;;5048487;28;20032;-60
2022/06/24 07:46:39;;;;;;;78.50;7.20;;;;;;;;;;5046703;28;20116;-60
2022/06/24 07:49:06;;;;;;;15.70;2.85;;;;;;;;;;5047900;28;20107;-60
2022/06/24 07:51:32;;;;;;;25.90;3.60;;;;;;;;;;5047634;28;20061;-61
2022/06/24 07:53:59;;;;;;;24.23;3.42;;;;;;;;;;5052029;28;20485;-60
2022/06/24 07:59:10;;;;;;;16.65;2.83;;;;;;;;;;5048027;28;20124;-60
2022/06/24 08:01:37;;;;;;;11.10;2.53;;;;;;;;;;5048183;28;20152;-60
2022/06/24 08:04:07;;;;;;;26.15;3.55;;;;;;;;;;5047611;28;20051;-61
2022/06/24 08:06:40;;;;;;;80.50;6.75;;;;;;;;;;5047382;28;20083;-60
2022/06/24 08:09:07;;;;;;;219.68;13.52;;;;;;;;;;5048147;28;20056;-60
2022/06/24 08:11:34;;;;;;;36.63;4.15;;;;;;;;;;5048068;28;20072;-60
2022/06/24 08:14:00;;;;;;;34.47;4.20;;;;;;;;;;5047345;28;20051;-60
2022/06/24 08:16:27;;;;;;;27.73;3.67;;;;;;;;;;5047569;28;20123;-60
2022/06/24 08:18:54;;;;;;;41.80;4.68;;;;;;;;;;5045945;28;20072;-60
2022/06/24 08:21:21;;;;;;;56.20;5.63;;;;;;;;;;5049658;28;20083;-60
2022/06/24 08:23:48;;;;;;;11.18;2.78;;;;;;;;;;5049600;28;20421;-60
2022/06/24 08:26:16;;;;;;;21.88;3.40;;;;;;;;;;5047377;28;20084;-60
2022/06/24 08:28:43;;;;;;;19.90;3.28;;;;;;;;;;5047122;28;20454;-60
2022/06/24 08:31:09;;;;;;;51.53;5.53;;;;;;;;;;5045852;28;20497;-60
2022/06/24 08:33:36;;;;;;;26.48;4.15;;;;;;;;;;5047142;28;20037;-60
2022/06/24 08:36:03;;;;;;;46.22;5.45;;;;;;;;;;5050950;28;20048;-60
2022/06/24 08:38:30;;;;;;;33.63;4.20;;;;;;;;;;5047244;28;20057;-60
2022/06/24 08:40:58;;;;;;;30.52;4.45;;;;;;;;;;5047278;28;20392;-60
2022/06/24 08:43:29;;;;;;;76.10;7.88;;;;;;;;;;5046847;28;20528;-60
2022/06/24 08:45:56;;;;;;;85.10;7.80;;;;;;;;;;5047239;28;20124;-60
2022/06/24 08:48:25;;;;;;;122.60;10.35;;;;;;;;;;5048861;28;20547;-60
2022/06/24 08:50:52;;;;;;;19.67;3.38;;;;;;;;;;5050035;28;20044;-60
2022/06/24 08:53:21;;;;;;;690.38;61.53;;;;;;;;;;5046985;28;20041;-60
2022/06/24 08:55:50;;;;;;;113.47;8.57;;;;;;;;;;5045269;28;20798;-60
2022/06/24 08:58:18;;;;;;;52.50;6.13;;;;;;;;;;5046373;28;20405;-60
2022/06/24 09:00:45;;;;;;;47.42;5.43;;;;;;;;;;5059395;28;20072;-60
2022/06/24 09:03:12;;;;;;;46.80;5.15;;;;;;;;;;5050488;28;20053;-60
2022/06/24 09:05:40;;;;;;;20.73;5.20;;;;;;;;;;5047111;28;20134;-60
2022/06/24 09:08:11;;;;;;;26.00;4.20;;;;;;;;;;5046577;28;20029;-60
2022/06/24 09:10:38;;;;;;;63.00;6.50;;;;;;;;;;5045872;28;20061;-60
2022/06/24 09:13:22;;;;;;;28.90;4.80;;;;;;;;;;5047112;28;20037;-61
2022/06/24 09:15:52;;;;;;;38.17;4.40;;;;;;;;;;5046750;28;20049;-60
2022/06/24 09:18:23;;;;;;;41.67;5.10;;;;;;;;;;5048860;28;20519;-60
2022/06/24 09:20:50;;;;;;;68.60;6.38;;;;;;;;;;5048092;28;20179;-60
2022/06/24 09:23:17;;;;;;;81.20;7.25;;;;;;;;;;5046506;28;20120;-60
2022/06/24 09:25:45;;;;;;;34.03;4.68;;;;;;;;;;5045234;28;20140;-60
2022/06/24 09:28:19;;;;;;;35.80;4.53;;;;;;;;;;5046075;28;20049;-60
2022/06/24 09:30:46;;;;;;;30.42;4.45;;;;;;;;;;5046397;28;20482;-60
2022/06/24 09:33:19;;;;;;;67.95;6.68;;;;;;;;;;5049695;28;20048;-60
2022/06/24 09:36:00;;;;;;;31.08;4.85;;;;;;;;;;5050007;28;20049;-60
2022/06/24 09:38:27;;;;;;;481.00;38.35;;;;;;;;;;5045075;28;20049;-60
2022/06/24 09:41:06;;;;;;;39.83;5.35;;;;;;;;;;5046052;28;20073;-60
2022/06/24 09:43:33;;;;;;;32.13;4.90;;;;;;;;;;5045762;28;20069;-60
2022/06/24 09:46:00;;;;;;;29.92;4.72;;;;;;;;;;5046390;28;20563;-60
2022/06/24 09:48:27;;;;;;;73.78;7.40;;;;;;;;;;5047301;28;20035;-60
2022/06/24 09:50:58;;;;;;;29.33;4.60;;;;;;;;;;5049231;28;20124;-60
2022/06/24 09:53:26;;;;;;;15.93;4.13;;;;;;;;;;5046153;28;20059;-60
2022/06/24 09:55:53;;;;;;;39.85;5.68;;;;;;;;;;5046164;28;20115;-60
2022/06/24 09:58:20;;;;;;;35.90;5.68;;;;;;;;;;5045966;28;20489;-61
2022/06/24 10:00:47;;;;;;;42.95;5.68;;;;;;;;;;5059138;28;20037;-60
2022/06/24 10:03:14;;;;;;;63.42;6.95;;;;;;;;;;5049570;28;20110;-60
2022/06/24 10:05:45;;;;;;;36.45;5.88;;;;;;;;;;5046767;28;20048;-60
2022/06/24 10:08:22;;;;;;;54.30;5.35;;;;;;;;;;5046073;28;20048;-60
2022/06/24 10:10:49;;;;;;;29.90;3.20;;;;;;;;;;5031615;28;20057;-60
2022/06/24 10:13:25;;;;;;;247.05;19.60;;;;;;;;;;5038814;28;20068;-60
2022/06/24 10:15:53;;;;;;;80.10;10.07;;;;;;;;;;5049256;28;20068;-60
2022/06/24 10:18:22;;;;;;;46.95;6.55;;;;;;;;;;5052536;28;20073;-60
2022/06/24 10:20:50;;;;;;;31.25;4.53;;;;;;;;;;5052180;28;20080;-60
2022/06/24 10:23:35;;;;;;;58.50;5.38;;;;;;;;;;5049576;28;20123;-61
2022/06/24 10:26:08;;;;;;;1058.40;97.35;;;;;;;;;;5049725;28;20095;-60
2022/06/24 10:28:54;;;;;;;68.35;7.57;;;;;;;;;;5049846;28;20390;-60
2022/06/24 10:31:21;;;;;;;25.73;5.45;;;;;;;;;;5049474;28;20044;-60
2022/06/24 10:33:54;;;;;;;27.58;3.53;;;;;;;;;;5048106;28;20125;-60
2022/06/24 10:36:31;;;;;;;62.35;5.22;;;;;;;;;;5052718;28;20040;-60
2022/06/24 10:39:10;;;;;;;525.03;49.17;;;;;;;;;;5052599;28;20044;-60
2022/06/24 10:41:37;;;;;;;46.55;4.20;;;;;;;;;;5048545;28;20560;-60
2022/06/24 10:44:24;;;;;;;436.50;30.65;;;;;;;;;;5049022;28;20041;-60
2022/06/24 10:47:06;;;;;;;137.00;8.27;;;;;;;;;;5047607;28;20128;-60
2022/06/24 10:49:51;;;;;;;133.77;9.63;;;;;;;;;;5048576;28;20105;-60
2022/06/24 10:52:36;;;;;;;130.05;7.97;;;;;;;;;;5049048;28;20622;-60
2022/06/24 10:55:32;;;;;;;23.85;2.92;;;;;;;;;;5049414;28;20059;-60
2022/06/24 10:58:03;;;;;;;34.65;3.60;;;;;;;;;;5046235;28;20068;-60
2022/06/24 11:00:39;;;;;;;45.05;4.07;;;;;;;;;;5049974;28;20490;-60
2022/06/24 11:03:13;;;;;;;27.33;3.22;;;;;;;;;;5049320;28;20458;-59
2022/06/24 11:05:41;;;;;;;27.67;2.75;;;;;;;;;;5049636;28;20071;-60
2022/06/24 11:08:15;;;;;;;34.20;3.53;;;;;;;;;;5048931;28;20090;-59
2022/06/24 11:10:42;;;;;;;54.13;4.28;;;;;;;;;;5048229;28;20049;-59
2022/06/24 11:13:10;;;;;;;54.75;4.18;;;;;;;;;;5048279;28;20464;-60
2022/06/24 11:15:36;;;;;;;39.92;4.10;;;;;;;;;;5049245;28;20045;-59
2022/06/24 11:18:09;;;;;;;31.42;3.70;;;;;;;;;;5052582;28;20566;-59
2022/06/24 11:20:36;;;;;;;;;;;;;;;;;;5048582;28;20041;-60
2022/06/24 11:23:05;;;;;;;40.35;3.85;;;;;;;;;;5048299;28;19981;-60
2022/06/24 11:25:32;;;;;;;40.78;3.65;;;;;;;;;;5048941;28;20052;-60
2022/06/24 11:27:59;;;;;;;51.00;4.47;;;;;;;;;;5048270;28;20057;-59
2022/06/24 11:30:26;;;;;;;51.63;4.82;;;;;;;;;;5050909;28;20091;-60
2022/06/24 11:32:57;;;;;;;18.95;2.70;;;;;;;;;;5050802;28;20145;-60
2022/06/24 11:35:24;;;;;;;16.05;2.42;;;;;;;;;;5048319;28;20562;-59
2022/06/24 11:37:52;;;;;;;43.70;4.13;;;;;;;;;;5047934;28;20499;-59
2022/06/24 11:40:20;;;;;;;13.48;2.40;;;;;;;;;;5048309;28;20565;-60
2022/06/24 11:42:46;;;;;;;52.28;4.65;;;;;;;;;;5048097;28;20117;-59
2022/06/24 11:45:13;;;;;;;102.22;7.20;;;;;;;;;;5052561;28;20052;-59
2022/06/24 11:47:40;;;;;;;62.03;5.38;;;;;;;;;;5048289;28;20216;-60
2022/06/24 11:50:17;;;;;;;81.50;7.50;;;;;;;;;;5048071;28;20091;-59
2022/06/24 11:52:44;;;;;;;24.75;3.08;;;;;;;;;;5048164;28;20072;-60
2022/06/24 11:55:24;;;;;;;32.55;3.67;;;;;;;;;;5047935;28;20103;-59
2022/06/24 11:57:54;;;;;;;41.55;4.25;;;;;;;;;;5046452;28;20091;-59
2022/06/24 12:00:21;;;;;;;49.33;5.05;;;;;;;;;;5051691;28;20125;-59
2022/06/24 12:02:49;;;;;;;59.33;5.18;;;;;;;;;;5049228;28;20519;-60
2022/06/24 12:05:16;;;;;;;34.70;3.28;;;;;;;;;;5047270;28;20049;-60
2022/06/24 12:07:43;;;;;;;29.02;3.40;;;;;;;;;;5048804;28;20045;-60
2022/06/24 12:10:09;;;;;;;39.63;3.75;;;;;;;;;;5033929;28;20060;-59
2022/06/24 12:12:36;;;;;;;36.30;3.65;;;;;;;;;;5048363;28;20060;-60
2022/06/24 12:15:03;;;;;;;23.42;2.85;;;;;;;;;;5051937;28;20052;-60
2022/06/24 12:17:29;;;;;;;58.17;5.45;;;;;;;;;;5047047;28;20116;-60
2022/06/24 12:19:58;;;;;;;60.25;5.22;;;;;;;;;;5045795;28;20082;-60
2022/06/24 12:22:25;;;;;;;37.55;4.35;;;;;;;;;;5047390;28;20087;-60
2022/06/24 12:24:59;;;;;;;21.27;2.50;;;;;;;;;;5047280;28;20037;-60
2022/06/24 12:27:36;;;;;;;46.33;4.72;;;;;;;;;;5048836;28;20531;-61
2022/06/24 12:30:07;;;;;;;59.08;5.13;;;;;;;;;;5050569;28;20131;-60
2022/06/24 12:32:52;;;;;;;66.53;5.88;;;;;;;;;;5046186;28;20045;-60
2022/06/24 12:35:32;;;;;;;31.67;3.38;;;;;;;;;;5047112;28;20049;-60
2022/06/24 13:01:46;;;;;;;20.10;2.60;;;;;;;;;;5062640;22;20070;-59
2022/06/24 13:04:13;;;;;;;20.65;2.70;;;;;;;;;;5048911;28;20790;-60
2022/06/24 13:06:40;;;;;;;36.72;3.80;;;;;;;;;;5050277;28;20397;-59
2022/06/24 13:09:07;;;;;;;21.63;2.70;;;;;;;;;;5033962;28;20072;-60
2022/06/24 13:11:35;;;;;;;67.78;5.57;;;;;;;;;;5049703;28;20585;-60
2022/06/24 13:14:02;;;;;;;31.48;3.13;;;;;;;;;;5050812;28;20068;-59
2022/06/24 13:16:29;;;;;;;15.05;2.40;;;;;;;;;;5050418;28;20116;-59
2022/06/24 13:18:56;;;;;;;29.23;2.80;;;;;;;;;;5050478;28;20041;-60
2022/06/24 13:21:22;;;;;;;64.22;4.80;;;;;;;;;;5050595;28;20436;-60
2022/06/24 13:23:50;;;;;;;23.10;2.88;;;;;;;;;;5050989;28;20125;-60
2022/06/24 13:26:16;;;;;;;32.20;3.65;;;;;;;;;;5049344;28;20417;-59
2022/06/24 13:28:43;;;;;;;37.55;4.13;;;;;;;;;;5050567;28;20065;-59
2022/06/24 13:31:10;;;;;;;35.85;4.15;;;;;;;;;;5050384;28;20037;-60
2022/06/24 13:33:36;;;;;;;52.15;4.75;;;;;;;;;;5050329;28;20040;-59
2022/06/24 13:36:03;;;;;;;40.42;3.83;;;;;;;;;;5051509;28;20071;-59
2022/06/24 13:38:30;;;;;;;46.15;4.45;;;;;;;;;;5050342;28;20080;-60
2022/06/24 13:40:56;;;;;;;95.35;7.18;;;;;;;;;;5032578;28;20044;-59
2022/06/24 13:43:23;;;;;;;25.55;3.25;;;;;;;;;;5050974;28;20067;-60
2022/06/24 13:45:49;;;;;;;24.27;3.00;;;;;;;;;;5054735;28;20595;-59
2022/06/24 13:48:16;;;;;;;35.60;3.65;;;;;;;;;;5054923;28;20055;-59
2022/06/24 13:50:43;;;;;;;25.67;2.97;;;;;;;;;;5054537;28;20045;-59
2022/06/24 13:53:09;;;;;;;157.93;10.32;;;;;;;;;;5053956;28;20036;-59
2022/06/24 13:55:36;;;;;;;50.45;4.95;;;;;;;;;;5054429;28;20049;-60
2022/06/24 13:58:02;;;;;;;42.97;4.85;;;;;;;;;;5054250;28;20091;-59
2022/06/24 14:00:29;;;;;;;47.13;4.55;;;;;;;;;;5054284;28;20404;-59
2022/06/24 14:02:56;;;;;;;28.88;3.20;;;;;;;;;;5054756;28;20095;-61
2022/06/24 14:05:23;;;;;;;31.98;3.17;;;;;;;;;;5053979;28;20045;-60
2022/06/24 14:07:49;;;;;;;37.55;3.80;;;;;;;;;;5053578;28;20051;-61
2022/06/24 14:10:16;;;;;;;44.70;4.03;;;;;;;;;;5054383;28;20084;-60
2022/06/24 14:12:51;;;;;;;59.33;5.78;;;;;;;;;;5053958;28;20049;-60
2022/06/24 14:15:18;;;;;;;31.85;3.33;;;;;;;;;;5054345;28;20045;-60
2022/06/24 14:17:44;;;;;;;43.45;4.15;;;;;;;;;;5054042;28;20052;-59
2022/06/24 14:20:12;;;;;;;99.20;8.50;;;;;;;;;;5053925;28;20119;-59
2022/06/24 14:24:31;;;;;;;36.28;3.83;;;;;;;;;;5054100;28;20469;-59
2022/06/24 14:25:26;;;;;;;39.65;4.10;;;;;;;;;;5053964;28;20108;-59
2022/06/24 14:27:52;;;;;;;40.33;3.70;;;;;;;;;;5054100;28;20047;-59
2022/06/24 14:30:20;;;;;;;88.18;6.75;;;;;;;;;;5053886;28;20489;-59
2022/06/24 14:32:46;;;;;;;38.78;4.20;;;;;;;;;;5054137;28;20045;-59
2022/06/24 14:35:13;;;;;;;52.58;4.82;;;;;;;;;;5052290;28;20445;-59
2022/06/24 14:40:25;;;;;;;79.38;7.32;;;;;;;;;;5053608;28;20127;-59
2022/06/24 14:43:12;;;;;;;45.60;4.68;;;;;;;;;;5053560;28;20041;-59
2022/06/24 14:45:38;;;;;;;29.30;3.42;;;;;;;;;;5054076;28;20068;-59
2022/06/24 14:48:05;;;;;;;74.13;5.03;;;;;;;;;;5053537;28;20489;-58
2022/06/24 14:50:32;;;;;;;33.15;3.85;;;;;;;;;;5052976;28;20131;-59
2022/06/24 14:52:59;;;;;;;14.45;2.40;;;;;;;;;;5053329;28;20044;-59
2022/06/24 14:55:26;;;;;;;66.57;6.15;;;;;;;;;;5052702;28;20131;-59
2022/06/24 14:57:54;;;;;;;46.17;4.13;;;;;;;;;;5053291;28;20041;-58
2022/06/24 15:00:21;;;;;;;49.13;4.93;;;;;;;;;;5053539;28;20124;-59
2022/06/24 15:02:48;;;;;;;47.05;5.55;;;;;;;;;;5052949;28;20061;-59
2022/06/24 15:05:14;;;;;;;30.20;3.63;;;;;;;;;;5053169;28;20067;-59
2022/06/24 15:07:41;;;;;;;18.38;3.10;;;;;;;;;;5052772;28;20045;-59
2022/06/24 15:10:08;;;;;;;48.08;4.55;;;;;;;;;;5052698;28;20071;-59